CA-0118 weather

CLOSED Drake Point Airport
Nunavut, Canada

Public forecast

Using degrees Celsius for public forecast. Weather courtesy of forecast.io.

METAR (pilot weather report)

Closest report is Resolute Bay Airport, 230.2 nm (426.3 km) ESE. Retrieved 2019/04/24 18:00 UTC (5 minutes ago):

CYRB 241800Z 18003KT 140V270 15SM IC SKC M25/M28 A2988 RMK SLP132

TAF (pilot weather forecast)

Closest forecast is Resolute Bay Airport, 230.2 nm (426.3 km) ESE. Retrieved 2019/04/24 18:48 UTC (0 seconds ago):

TAF CYRB 241745Z 2418/2518 34005KT P6SM IC SCT090 FM242100 09008KT P6SM IC FEW020 TEMPO 2421/2503 P6SM -SN BKN020 FM250300 12008KT P6SM IC FEW020 BECMG 2504/2506 04005KT RMK NXT FCST BY 250000Z